Webcam Flughafen St.Gallen-Altenrhein

Live-Bilder und Zeitraffer LSZR / ACH.

 

Live aus Altenrhein
LIVE
LSZR 010320Z AUTO VRB01KT 8000 OVC006 09/09 Q1009
Zeitraffer heute
2020-10-01 00:14:17
LSZR 302150Z AUTO VRB02KT 9999 OVC028 13/12 Q1012